sensor_id;sensor_type;location;lat;lon;timestamp;P1;durP1;ratioP1;P2;durP2;ratioP2
21546;SDS011;41275;51.912;4.388;2023-04-06T00:03:54;18.00;;;9.70;;
21546;SDS011;41275;51.912;4.388;2023-04-06T00:09:15;18.83;;;9.33;;
21546;SDS011;41275;51.912;4.388;2023-04-06T00:14:36;16.17;;;8.85;;
21546;SDS011;41275;51.912;4.388;2023-04-06T00:19:58;15.88;;;7.82;;
21546;SDS011;41275;51.912;4.388;2023-04-06T00:25:19;15.43;;;8.57;;
21546;SDS011;41275;51.912;4.388;2023-04-06T00:30:40;18.30;;;7.90;;
21546;SDS011;41275;51.912;4.388;2023-04-06T00:36:02;21.70;;;8.18;;
21546;SDS011;41275;51.912;4.388;2023-04-06T00:41:23;14.48;;;8.00;;
21546;SDS011;41275;51.912;4.388;2023-04-06T00:46:44;14.20;;;8.30;;
21546;SDS011;41275;51.912;4.388;2023-04-06T00:52:05;16.95;;;8.50;;
21546;SDS011;41275;51.912;4.388;2023-04-06T00:57:27;15.75;;;8.43;;
21546;SDS011;41275;51.912;4.388;2023-04-06T01:02:48;18.13;;;8.43;;
21546;SDS011;41275;51.912;4.388;2023-04-06T01:08:09;17.83;;;8.47;;
21546;SDS011;41275;51.912;4.388;2023-04-06T01:13:31;17.87;;;8.80;;
21546;SDS011;41275;51.912;4.388;2023-04-06T01:18:52;16.77;;;8.80;;
21546;SDS011;41275;51.912;4.388;2023-04-06T01:24:13;15.43;;;8.68;;
21546;SDS011;41275;51.912;4.388;2023-04-06T01:29:34;18.13;;;9.13;;
21546;SDS011;41275;51.912;4.388;2023-04-06T01:34:56;16.35;;;8.95;;
21546;SDS011;41275;51.912;4.388;2023-04-06T01:40:17;17.48;;;8.70;;
21546;SDS011;41275;51.912;4.388;2023-04-06T01:45:38;18.25;;;9.13;;
21546;SDS011;41275;51.912;4.388;2023-04-06T01:50:59;20.15;;;9.30;;
21546;SDS011;41275;51.912;4.388;2023-04-06T01:56:21;18.77;;;9.48;;
21546;SDS011;41275;51.912;4.388;2023-04-06T02:01:42;18.30;;;9.60;;
21546;SDS011;41275;51.912;4.388;2023-04-06T02:07:03;21.13;;;9.50;;
21546;SDS011;41275;51.912;4.388;2023-04-06T02:12:24;19.17;;;9.38;;
21546;SDS011;41275;51.912;4.388;2023-04-06T02:17:46;21.50;;;9.80;;
21546;SDS011;41275;51.912;4.388;2023-04-06T02:23:07;18.77;;;9.95;;
21546;SDS011;41275;51.912;4.388;2023-04-06T02:28:28;19.15;;;9.68;;
21546;SDS011;41275;51.912;4.388;2023-04-06T02:33:49;19.05;;;10.20;;
21546;SDS011;41275;51.912;4.388;2023-04-06T02:39:11;22.52;;;9.75;;
21546;SDS011;41275;51.912;4.388;2023-04-06T02:44:33;20.47;;;10.00;;
21546;SDS011;41275;51.912;4.388;2023-04-06T02:49:54;18.88;;;9.65;;
21546;SDS011;41275;51.912;4.388;2023-04-06T02:55:15;20.92;;;10.88;;
21546;SDS011;41275;51.912;4.388;2023-04-06T03:00:37;21.05;;;10.45;;
21546;SDS011;41275;51.912;4.388;2023-04-06T03:05:58;19.23;;;10.50;;
21546;SDS011;41275;51.912;4.388;2023-04-06T03:11:20;22.40;;;10.73;;
21546;SDS011;41275;51.912;4.388;2023-04-06T03:16:42;19.73;;;10.50;;
21546;SDS011;41275;51.912;4.388;2023-04-06T03:22:03;21.30;;;10.50;;
21546;SDS011;41275;51.912;4.388;2023-04-06T03:27:24;27.20;;;12.07;;
21546;SDS011;41275;51.912;4.388;2023-04-06T03:32:45;23.05;;;11.55;;
21546;SDS011;41275;51.912;4.388;2023-04-06T03:38:06;19.88;;;11.05;;
21546;SDS011;41275;51.912;4.388;2023-04-06T03:43:28;21.60;;;11.30;;
21546;SDS011;41275;51.912;4.388;2023-04-06T03:48:49;24.05;;;11.50;;
21546;SDS011;41275;51.912;4.388;2023-04-06T03:54:10;23.27;;;11.05;;
21546;SDS011;41275;51.912;4.388;2023-04-06T03:59:31;23.73;;;11.32;;
21546;SDS011;41275;51.912;4.388;2023-04-06T04:04:52;21.35;;;11.60;;
21546;SDS011;41275;51.912;4.388;2023-04-06T04:10:14;20.33;;;11.80;;
21546;SDS011;41275;51.912;4.388;2023-04-06T04:15:35;21.20;;;11.73;;
21546;SDS011;41275;51.912;4.388;2023-04-06T04:20:56;24.33;;;12.13;;
21546;SDS011;41275;51.912;4.388;2023-04-06T04:26:18;21.48;;;11.30;;
21546;SDS011;41275;51.912;4.388;2023-04-06T04:31:39;22.25;;;12.25;;
21546;SDS011;41275;51.912;4.388;2023-04-06T04:37:00;22.98;;;11.63;;
21546;SDS011;41275;51.912;4.388;2023-04-06T04:42:21;27.40;;;12.63;;
21546;SDS011;41275;51.912;4.388;2023-04-06T04:47:44;23.45;;;11.75;;
21546;SDS011;41275;51.912;4.388;2023-04-06T04:53:05;24.98;;;12.38;;
21546;SDS011;41275;51.912;4.388;2023-04-06T04:58:26;31.05;;;12.55;;
21546;SDS011;41275;51.912;4.388;2023-04-06T05:03:48;27.30;;;12.88;;
21546;SDS011;41275;51.912;4.388;2023-04-06T05:09:09;27.00;;;12.98;;
21546;SDS011;41275;51.912;4.388;2023-04-06T05:14:30;24.30;;;12.77;;
21546;SDS011;41275;51.912;4.388;2023-04-06T05:19:53;23.80;;;13.05;;
21546;SDS011;41275;51.912;4.388;2023-04-06T05:25:14;25.48;;;12.70;;
21546;SDS011;41275;51.912;4.388;2023-04-06T05:30:36;25.85;;;13.27;;
21546;SDS011;41275;51.912;4.388;2023-04-06T05:35:57;26.58;;;13.68;;
21546;SDS011;41275;51.912;4.388;2023-04-06T05:41:18;24.60;;;14.02;;
21546;SDS011;41275;51.912;4.388;2023-04-06T05:46:40;27.60;;;14.00;;
21546;SDS011;41275;51.912;4.388;2023-04-06T05:52:02;29.35;;;14.80;;
21546;SDS011;41275;51.912;4.388;2023-04-06T05:57:23;31.63;;;14.82;;
21546;SDS011;41275;51.912;4.388;2023-04-06T06:02:44;26.40;;;14.95;;
21546;SDS011;41275;51.912;4.388;2023-04-06T06:08:07;30.57;;;14.30;;
21546;SDS011;41275;51.912;4.388;2023-04-06T06:13:28;26.85;;;14.35;;
21546;SDS011;41275;51.912;4.388;2023-04-06T06:18:49;25.48;;;13.80;;
21546;SDS011;41275;51.912;4.388;2023-04-06T06:24:11;32.33;;;14.25;;
21546;SDS011;41275;51.912;4.388;2023-04-06T06:29:32;29.75;;;15.32;;
21546;SDS011;41275;51.912;4.388;2023-04-06T06:34:53;30.05;;;15.27;;
21546;SDS011;41275;51.912;4.388;2023-04-06T06:40:14;27.40;;;15.23;;
21546;SDS011;41275;51.912;4.388;2023-04-06T06:45:36;28.53;;;14.83;;
21546;SDS011;41275;51.912;4.388;2023-04-06T06:50:58;30.75;;;14.73;;
21546;SDS011;41275;51.912;4.388;2023-04-06T06:56:19;30.70;;;14.60;;
21546;SDS011;41275;51.912;4.388;2023-04-06T07:01:40;32.17;;;15.60;;
21546;SDS011;41275;51.912;4.388;2023-04-06T07:07:01;27.52;;;13.85;;
21546;SDS011;41275;51.912;4.388;2023-04-06T07:12:24;26.30;;;14.32;;
21546;SDS011;41275;51.912;4.388;2023-04-06T07:17:45;27.70;;;14.88;;
21546;SDS011;41275;51.912;4.388;2023-04-06T07:23:06;39.85;;;20.60;;
21546;SDS011;41275;51.912;4.388;2023-04-06T07:28:28;31.15;;;16.10;;
21546;SDS011;41275;51.912;4.388;2023-04-06T07:33:49;28.63;;;16.65;;
21546;SDS011;41275;51.912;4.388;2023-04-06T07:39:10;30.77;;;16.42;;
21546;SDS011;41275;51.912;4.388;2023-04-06T07:44:32;28.40;;;16.52;;
21546;SDS011;41275;51.912;4.388;2023-04-06T07:49:54;29.98;;;17.13;;
21546;SDS011;41275;51.912;4.388;2023-04-06T07:55:16;28.48;;;16.45;;
21546;SDS011;41275;51.912;4.388;2023-04-06T08:00:37;31.98;;;15.85;;
21546;SDS011;41275;51.912;4.388;2023-04-06T08:05:59;26.90;;;14.40;;
21546;SDS011;41275;51.912;4.388;2023-04-06T08:11:20;29.98;;;15.10;;
21546;SDS011;41275;51.912;4.388;2023-04-06T08:16:42;30.45;;;13.00;;
21546;SDS011;41275;51.912;4.388;2023-04-06T08:22:03;26.40;;;12.27;;
21546;SDS011;41275;51.912;4.388;2023-04-06T08:27:24;18.70;;;10.68;;
21546;SDS011;41275;51.912;4.388;2023-04-06T08:32:45;21.60;;;10.55;;
21546;SDS011;41275;51.912;4.388;2023-04-06T08:38:07;16.45;;;8.38;;
21546;SDS011;41275;51.912;4.388;2023-04-06T08:43:28;16.35;;;8.52;;
21546;SDS011;41275;51.912;4.388;2023-04-06T08:48:51;19.57;;;8.33;;
21546;SDS011;41275;51.912;4.388;2023-04-06T08:54:12;15.67;;;7.53;;
21546;SDS011;41275;51.912;4.388;2023-04-06T08:59:33;16.83;;;6.97;;
21546;SDS011;41275;51.912;4.388;2023-04-06T09:04:57;14.90;;;6.90;;
21546;SDS011;41275;51.912;4.388;2023-04-06T09:10:18;13.23;;;6.22;;
21546;SDS011;41275;51.912;4.388;2023-04-06T09:15:39;11.00;;;5.60;;
21546;SDS011;41275;51.912;4.388;2023-04-06T09:21:04;10.48;;;4.93;;
21546;SDS011;41275;51.912;4.388;2023-04-06T09:26:26;9.87;;;5.70;;
21546;SDS011;41275;51.912;4.388;2023-04-06T09:31:48;10.83;;;5.30;;
21546;SDS011;41275;51.912;4.388;2023-04-06T09:37:12;11.93;;;5.77;;
21546;SDS011;41275;51.912;4.388;2023-04-06T09:42:37;9.95;;;5.70;;
21546;SDS011;41275;51.912;4.388;2023-04-06T09:47:58;12.07;;;6.60;;
21546;SDS011;41275;51.912;4.388;2023-04-06T09:53:20;13.43;;;6.57;;
21546;SDS011;41275;51.912;4.388;2023-04-06T09:58:46;14.50;;;6.63;;
21546;SDS011;41275;51.912;4.388;2023-04-06T10:09:47;10.70;;;6.05;;
21546;SDS011;41275;51.912;4.388;2023-04-06T10:15:09;12.03;;;6.10;;
21546;SDS011;41275;51.912;4.388;2023-04-06T10:20:48;11.30;;;5.50;;
21546;SDS011;41275;51.912;4.388;2023-04-06T10:26:13;11.00;;;6.40;;
21546;SDS011;41275;51.912;4.388;2023-04-06T10:31:39;10.37;;;7.00;;
21546;SDS011;41275;51.912;4.388;2023-04-06T10:37:15;11.10;;;6.28;;
21546;SDS011;41275;51.912;4.388;2023-04-06T10:42:39;8.80;;;5.60;;
21546;SDS011;41275;51.912;4.388;2023-04-06T10:48:01;9.03;;;5.20;;
21546;SDS011;41275;51.912;4.388;2023-04-06T10:53:33;9.70;;;4.87;;
21546;SDS011;41275;51.912;4.388;2023-04-06T10:58:55;8.32;;;5.13;;
21546;SDS011;41275;51.912;4.388;2023-04-06T11:04:19;8.27;;;5.40;;
21546;SDS011;41275;51.912;4.388;2023-04-06T11:09:41;9.38;;;5.57;;
21546;SDS011;41275;51.912;4.388;2023-04-06T11:15:03;10.43;;;6.00;;
21546;SDS011;41275;51.912;4.388;2023-04-06T11:20:25;10.80;;;6.03;;
21546;SDS011;41275;51.912;4.388;2023-04-06T11:25:50;10.63;;;6.55;;
21546;SDS011;41275;51.912;4.388;2023-04-06T11:31:12;10.10;;;5.93;;
21546;SDS011;41275;51.912;4.388;2023-04-06T11:36:33;10.57;;;6.10;;
21546;SDS011;41275;51.912;4.388;2023-04-06T11:42:01;11.32;;;6.60;;
21546;SDS011;41275;51.912;4.388;2023-04-06T11:47:30;9.43;;;6.23;;
21546;SDS011;41275;51.912;4.388;2023-04-06T11:52:59;10.52;;;6.20;;
21546;SDS011;41275;51.912;4.388;2023-04-06T11:58:22;8.88;;;5.70;;
21546;SDS011;41275;51.912;4.388;2023-04-06T12:03:43;9.10;;;5.83;;
21546;SDS011;41275;51.912;4.388;2023-04-06T12:09:04;9.30;;;6.13;;
21546;SDS011;41275;51.912;4.388;2023-04-06T12:14:25;9.00;;;5.78;;
21546;SDS011;41275;51.912;4.388;2023-04-06T12:19:46;8.48;;;5.50;;
21546;SDS011;41275;51.912;4.388;2023-04-06T12:25:08;8.30;;;5.05;;
21546;SDS011;41275;51.912;4.388;2023-04-06T12:30:29;9.48;;;5.50;;
21546;SDS011;41275;51.912;4.388;2023-04-06T12:35:51;9.10;;;4.78;;
21546;SDS011;41275;51.912;4.388;2023-04-06T12:41:12;7.43;;;4.80;;
21546;SDS011;41275;51.912;4.388;2023-04-06T12:46:34;8.13;;;5.40;;
21546;SDS011;41275;51.912;4.388;2023-04-06T12:51:55;7.53;;;5.03;;
21546;SDS011;41275;51.912;4.388;2023-04-06T12:57:17;9.23;;;5.47;;
21546;SDS011;41275;51.912;4.388;2023-04-06T13:02:38;7.60;;;5.23;;
21546;SDS011;41275;51.912;4.388;2023-04-06T13:07:59;8.00;;;5.13;;
21546;SDS011;41275;51.912;4.388;2023-04-06T13:13:27;7.85;;;5.32;;
21546;SDS011;41275;51.912;4.388;2023-04-06T13:18:49;9.30;;;5.43;;
21546;SDS011;41275;51.912;4.388;2023-04-06T13:24:12;8.98;;;5.60;;
21546;SDS011;41275;51.912;4.388;2023-04-06T13:29:33;8.80;;;5.95;;
21546;SDS011;41275;51.912;4.388;2023-04-06T13:34:55;10.88;;;5.40;;
21546;SDS011;41275;51.912;4.388;2023-04-06T13:40:16;9.05;;;5.60;;
21546;SDS011;41275;51.912;4.388;2023-04-06T13:45:38;8.77;;;5.82;;
21546;SDS011;41275;51.912;4.388;2023-04-06T13:51:07;8.68;;;5.25;;
21546;SDS011;41275;51.912;4.388;2023-04-06T13:56:32;8.73;;;5.80;;
21546;SDS011;41275;51.912;4.388;2023-04-06T14:01:53;8.87;;;5.43;;
21546;SDS011;41275;51.912;4.388;2023-04-06T14:07:14;8.43;;;5.63;;
21546;SDS011;41275;51.912;4.388;2023-04-06T14:12:35;8.48;;;5.65;;
21546;SDS011;41275;51.912;4.388;2023-04-06T14:17:56;8.93;;;6.13;;
21546;SDS011;41275;51.912;4.388;2023-04-06T14:23:18;8.00;;;5.30;;
21546;SDS011;41275;51.912;4.388;2023-04-06T14:28:39;9.48;;;6.55;;
21546;SDS011;41275;51.912;4.388;2023-04-06T14:34:01;12.57;;;7.45;;
21546;SDS011;41275;51.912;4.388;2023-04-06T14:39:23;10.60;;;6.63;;
21546;SDS011;41275;51.912;4.388;2023-04-06T14:44:46;14.05;;;7.07;;
21546;SDS011;41275;51.912;4.388;2023-04-06T14:50:09;7.55;;;5.35;;
21546;SDS011;41275;51.912;4.388;2023-04-06T14:55:30;7.65;;;4.75;;
21546;SDS011;41275;51.912;4.388;2023-04-06T15:00:58;6.63;;;4.25;;
21546;SDS011;41275;51.912;4.388;2023-04-06T15:06:21;6.73;;;3.83;;
21546;SDS011;41275;51.912;4.388;2023-04-06T15:11:42;6.27;;;3.97;;
21546;SDS011;41275;51.912;4.388;2023-04-06T15:17:03;6.40;;;3.92;;
21546;SDS011;41275;51.912;4.388;2023-04-06T15:22:24;6.78;;;4.03;;
21546;SDS011;41275;51.912;4.388;2023-04-06T15:27:45;5.88;;;3.80;;
21546;SDS011;41275;51.912;4.388;2023-04-06T15:33:07;5.72;;;3.90;;
21546;SDS011;41275;51.912;4.388;2023-04-06T15:38:29;6.73;;;4.17;;
21546;SDS011;41275;51.912;4.388;2023-04-06T15:43:51;7.60;;;4.68;;
21546;SDS011;41275;51.912;4.388;2023-04-06T15:49:13;7.97;;;4.70;;
21546;SDS011;41275;51.912;4.388;2023-04-06T15:54:34;7.60;;;5.00;;
21546;SDS011;41275;51.912;4.388;2023-04-06T16:00:00;9.30;;;5.63;;
21546;SDS011;41275;51.912;4.388;2023-04-06T16:05:22;10.10;;;5.20;;
21546;SDS011;41275;51.912;4.388;2023-04-06T16:10:43;8.88;;;6.22;;
21546;SDS011;41275;51.912;4.388;2023-04-06T16:16:04;11.60;;;6.53;;
21546;SDS011;41275;51.912;4.388;2023-04-06T16:21:26;11.25;;;7.05;;
21546;SDS011;41275;51.912;4.388;2023-04-06T16:26:48;11.82;;;6.93;;
21546;SDS011;41275;51.912;4.388;2023-04-06T16:32:09;10.55;;;7.03;;
21546;SDS011;41275;51.912;4.388;2023-04-06T16:37:31;12.65;;;7.15;;
21546;SDS011;41275;51.912;4.388;2023-04-06T16:42:53;11.48;;;7.10;;
21546;SDS011;41275;51.912;4.388;2023-04-06T16:48:15;11.77;;;7.38;;
21546;SDS011;41275;51.912;4.388;2023-04-06T16:53:36;13.32;;;8.10;;
21546;SDS011;41275;51.912;4.388;2023-04-06T16:58:58;12.88;;;8.05;;
21546;SDS011;41275;51.912;4.388;2023-04-06T17:04:19;14.07;;;8.73;;
21546;SDS011;41275;51.912;4.388;2023-04-06T17:09:41;13.93;;;8.93;;
21546;SDS011;41275;51.912;4.388;2023-04-06T17:15:03;12.83;;;8.50;;
21546;SDS011;41275;51.912;4.388;2023-04-06T17:20:24;13.83;;;9.37;;
21546;SDS011;41275;51.912;4.388;2023-04-06T17:25:45;15.23;;;9.27;;
21546;SDS011;41275;51.912;4.388;2023-04-06T17:31:07;15.80;;;9.88;;
21546;SDS011;41275;51.912;4.388;2023-04-06T17:36:30;14.52;;;9.13;;
21546;SDS011;41275;51.912;4.388;2023-04-06T17:41:52;13.90;;;9.32;;
21546;SDS011;41275;51.912;4.388;2023-04-06T17:47:16;11.25;;;7.05;;
21546;SDS011;41275;51.912;4.388;2023-04-06T17:52:37;10.32;;;5.80;;
21546;SDS011;41275;51.912;4.388;2023-04-06T17:57:58;8.63;;;3.80;;
21546;SDS011;41275;51.912;4.388;2023-04-06T18:03:19;7.57;;;3.70;;
21546;SDS011;41275;51.912;4.388;2023-04-06T18:08:40;8.53;;;4.97;;
21546;SDS011;41275;51.912;4.388;2023-04-06T18:14:08;8.50;;;4.35;;
21546;SDS011;41275;51.912;4.388;2023-04-06T18:19:32;7.78;;;2.95;;
21546;SDS011;41275;51.912;4.388;2023-04-06T18:24:54;5.55;;;2.97;;
21546;SDS011;41275;51.912;4.388;2023-04-06T18:30:15;8.67;;;2.83;;
21546;SDS011;41275;51.912;4.388;2023-04-06T18:35:37;6.13;;;2.90;;
21546;SDS011;41275;51.912;4.388;2023-04-06T18:40:59;9.07;;;3.22;;
21546;SDS011;41275;51.912;4.388;2023-04-06T18:46:20;6.90;;;2.77;;
21546;SDS011;41275;51.912;4.388;2023-04-06T18:51:42;7.90;;;3.15;;
21546;SDS011;41275;51.912;4.388;2023-04-06T18:57:03;5.95;;;2.60;;
21546;SDS011;41275;51.912;4.388;2023-04-06T19:02:24;11.75;;;3.50;;
21546;SDS011;41275;51.912;4.388;2023-04-06T19:07:46;8.73;;;3.03;;
21546;SDS011;41275;51.912;4.388;2023-04-06T19:13:11;10.73;;;2.58;;
21546;SDS011;41275;51.912;4.388;2023-04-06T19:18:33;6.85;;;2.60;;
21546;SDS011;41275;51.912;4.388;2023-04-06T19:23:54;8.40;;;2.60;;
21546;SDS011;41275;51.912;4.388;2023-04-06T19:29:15;7.03;;;2.15;;
21546;SDS011;41275;51.912;4.388;2023-04-06T19:34:37;8.27;;;2.00;;
21546;SDS011;41275;51.912;4.388;2023-04-06T19:39:58;8.40;;;2.40;;
21546;SDS011;41275;51.912;4.388;2023-04-06T19:45:20;7.63;;;2.30;;
21546;SDS011;41275;51.912;4.388;2023-04-06T19:50:41;5.03;;;2.03;;
21546;SDS011;41275;51.912;4.388;2023-04-06T19:56:02;7.95;;;2.33;;
21546;SDS011;41275;51.912;4.388;2023-04-06T20:01:24;6.32;;;1.67;;
21546;SDS011;41275;51.912;4.388;2023-04-06T20:06:45;7.20;;;1.90;;
21546;SDS011;41275;51.912;4.388;2023-04-06T20:12:06;10.07;;;1.97;;
21546;SDS011;41275;51.912;4.388;2023-04-06T20:17:28;7.40;;;1.90;;
21546;SDS011;41275;51.912;4.388;2023-04-06T20:22:49;6.27;;;1.57;;
21546;SDS011;41275;51.912;4.388;2023-04-06T20:28:10;5.45;;;1.60;;
21546;SDS011;41275;51.912;4.388;2023-04-06T20:33:35;5.93;;;1.48;;
21546;SDS011;41275;51.912;4.388;2023-04-06T20:38:56;5.60;;;1.60;;
21546;SDS011;41275;51.912;4.388;2023-04-06T20:44:18;6.87;;;1.63;;
21546;SDS011;41275;51.912;4.388;2023-04-06T20:49:42;5.50;;;1.67;;
21546;SDS011;41275;51.912;4.388;2023-04-06T20:55:03;9.40;;;1.77;;
21546;SDS011;41275;51.912;4.388;2023-04-06T21:00:25;3.60;;;1.17;;
21546;SDS011;41275;51.912;4.388;2023-04-06T21:05:50;6.43;;;1.58;;
21546;SDS011;41275;51.912;4.388;2023-04-06T21:11:12;8.18;;;1.73;;
21546;SDS011;41275;51.912;4.388;2023-04-06T21:16:33;7.63;;;1.40;;
21546;SDS011;41275;51.912;4.388;2023-04-06T21:21:54;6.95;;;1.45;;
21546;SDS011;41275;51.912;4.388;2023-04-06T21:27:16;5.35;;;1.60;;
21546;SDS011;41275;51.912;4.388;2023-04-06T21:32:37;7.65;;;1.40;;
21546;SDS011;41275;51.912;4.388;2023-04-06T21:37:58;4.70;;;1.50;;
21546;SDS011;41275;51.912;4.388;2023-04-06T21:43:19;6.25;;;1.63;;
21546;SDS011;41275;51.912;4.388;2023-04-06T21:48:40;4.85;;;1.67;;
21546;SDS011;41275;51.912;4.388;2023-04-06T21:54:02;8.88;;;2.08;;
21546;SDS011;41275;51.912;4.388;2023-04-06T21:59:23;8.88;;;1.90;;
21546;SDS011;41275;51.912;4.388;2023-04-06T22:04:44;7.13;;;1.90;;
21546;SDS011;41275;51.912;4.388;2023-04-06T22:10:07;9.57;;;2.70;;
21546;SDS011;41275;51.912;4.388;2023-04-06T22:15:29;6.97;;;2.70;;
21546;SDS011;41275;51.912;4.388;2023-04-06T22:20:51;8.07;;;2.50;;
21546;SDS011;41275;51.912;4.388;2023-04-06T22:26:12;11.30;;;2.60;;
21546;SDS011;41275;51.912;4.388;2023-04-06T22:31:33;7.45;;;2.70;;
21546;SDS011;41275;51.912;4.388;2023-04-06T22:36:55;8.32;;;2.20;;
21546;SDS011;41275;51.912;4.388;2023-04-06T22:42:16;9.50;;;2.57;;
21546;SDS011;41275;51.912;4.388;2023-04-06T22:47:38;7.53;;;3.13;;
21546;SDS011;41275;51.912;4.388;2023-04-06T22:53:01;16.97;;;3.90;;
21546;SDS011;41275;51.912;4.388;2023-04-06T22:58:22;10.03;;;3.53;;
21546;SDS011;41275;51.912;4.388;2023-04-06T23:03:43;9.47;;;3.60;;
21546;SDS011;41275;51.912;4.388;2023-04-06T23:09:04;11.50;;;3.93;;
21546;SDS011;41275;51.912;4.388;2023-04-06T23:14:25;16.97;;;4.40;;
21546;SDS011;41275;51.912;4.388;2023-04-06T23:19:47;12.47;;;4.07;;
21546;SDS011;41275;51.912;4.388;2023-04-06T23:25:08;14.63;;;4.03;;
21546;SDS011;41275;51.912;4.388;2023-04-06T23:30:29;14.68;;;4.22;;
21546;SDS011;41275;51.912;4.388;2023-04-06T23:35:50;14.35;;;4.47;;
21546;SDS011;41275;51.912;4.388;2023-04-06T23:41:12;12.68;;;3.78;;
21546;SDS011;41275;51.912;4.388;2023-04-06T23:46:34;14.67;;;3.50;;
21546;SDS011;41275;51.912;4.388;2023-04-06T23:51:56;14.20;;;4.03;;
21546;SDS011;41275;51.912;4.388;2023-04-06T23:57:17;11.48;;;3.55;;
